Time;durP1;ratioP1;P1;durP2;ratioP2;P2;SDS_P1;SDS_P2;PMS_P1;PMS_P2;Temp;Humidity;BMP_temperature;BMP_pressure;BME280_temperature;BME280_humidity;BME280_pressure;Samples;Min_cycle;Max_cycle;Signal;HPM_P1;HPM_P2
2021/09/07 00:00:03;;;;;;;13.65;10.6;;;;;;;10.48;69.96777;95907.86;;;;
2021/09/07 00:01:05;;;;;;;13.65;10.6;;;;;;;10.48;69.96777;95907.86;;;;
2021/09/07 00:02:06;;;;;;;13.65;10.6;;;;;;;10.48;69.96777;95907.86;;;;
2021/09/07 00:03:06;;;;;;;14.95;10.6;;;;;;;10.29;70.74023;95910.16;;;;
2021/09/07 00:04:07;;;;;;;14.95;10.6;;;;;;;10.29;70.74023;95910.16;;;;
2021/09/07 00:05:07;;;;;;;14.95;10.6;;;;;;;10.29;70.74023;95910.16;;;;
2021/09/07 00:06:11;;;;;;;14.95;10.6;;;;;;;10.29;70.74023;95910.16;;;;
2021/09/07 00:07:11;;;;;;;14.95;10.6;;;;;;;10.29;70.74023;95910.16;;;;
2021/09/07 00:08:12;;;;;;;14.95;10.6;;;;;;;10.29;70.74023;95910.16;;;;
2021/09/07 00:09:12;;;;;;;14.95;10.6;;;;;;;10.29;70.74023;95910.16;;;;
2021/09/07 00:10:13;;;;;;;14.95;10.6;;;;;;;10.29;70.74023;95910.16;;;;
2021/09/07 00:11:14;;;;;;;14.95;10.6;;;;;;;10.29;70.74023;95910.16;;;;
2021/09/07 00:12:15;;;;;;;14.95;10.6;;;;;;;10.29;70.74023;95910.16;;;;
2021/09/07 00:13:15;;;;;;;12.75;10.3;;;;;;;10.2;70.92676;95897.18;;;;
2021/09/07 00:14:16;;;;;;;12.75;10.3;;;;;;;10.2;70.92676;95897.18;;;;
2021/09/07 00:15:16;;;;;;;12.75;10.3;;;;;;;10.2;70.92676;95897.18;;;;
2021/09/07 00:16:18;;;;;;;12.75;10.3;;;;;;;10.2;70.92676;95897.18;;;;
2021/09/07 00:17:19;;;;;;;12.75;10.3;;;;;;;10.2;70.92676;95897.18;;;;
2021/09/07 00:18:19;;;;;;;12.75;10.3;;;;;;;10.2;70.92676;95897.18;;;;
2021/09/07 00:19:20;;;;;;;12.75;10.3;;;;;;;10.2;70.92676;95897.18;;;;
2021/09/07 00:20:23;;;;;;;12.75;10.3;;;;;;;10.2;70.92676;95897.18;;;;
2021/09/07 00:21:24;;;;;;;12.75;10.3;;;;;;;10.2;70.92676;95897.18;;;;
2021/09/07 00:22:24;;;;;;;12.75;10.3;;;;;;;10.2;70.92676;95897.18;;;;
2021/09/07 00:23:25;;;;;;;12.75;10.3;;;;;;;10.2;70.92676;95897.18;;;;
2021/09/07 00:24:25;;;;;;;12.35;10.15;;;;;;;10.18;71.06348;95889.82;;;;
2021/09/07 00:25:26;;;;;;;12.35;10.15;;;;;;;10.18;71.06348;95889.82;;;;
2021/09/07 00:26:26;;;;;;;12.35;10.15;;;;;;;10.18;71.06348;95889.82;;;;
2021/09/07 00:27:27;;;;;;;12.35;10.15;;;;;;;10.18;71.06348;95889.82;;;;
2021/09/07 00:28:27;;;;;;;12.35;10.15;;;;;;;10.18;71.06348;95889.82;;;;
2021/09/07 00:29:28;;;;;;;12.35;10.15;;;;;;;10.18;71.06348;95889.82;;;;
2021/09/07 00:30:28;;;;;;;12.35;10.15;;;;;;;10.18;71.06348;95889.82;;;;
2021/09/07 00:31:29;;;;;;;12.35;10.15;;;;;;;10.18;71.06348;95889.82;;;;
2021/09/07 00:32:29;;;;;;;12.35;10.15;;;;;;;10.18;71.06348;95889.82;;;;
2021/09/07 00:33:30;;;;;;;12.35;10.15;;;;;;;10.18;71.06348;95889.82;;;;
2021/09/07 00:34:32;;;;;;;13.7;10.3;;;;;;;10.08;71.22949;95890.77;;;;
2021/09/07 00:35:32;;;;;;;13.7;10.3;;;;;;;10.08;71.22949;95890.77;;;;
2021/09/07 00:36:33;;;;;;;13.7;10.3;;;;;;;10.08;71.22949;95890.77;;;;
2021/09/07 00:37:33;;;;;;;13.7;10.3;;;;;;;10.08;71.22949;95890.77;;;;
2021/09/07 00:38:34;;;;;;;13.7;10.3;;;;;;;10.08;71.22949;95890.77;;;;
2021/09/07 00:39:34;;;;;;;13.7;10.3;;;;;;;10.08;71.22949;95890.77;;;;
2021/09/07 00:40:35;;;;;;;13.7;10.3;;;;;;;10.08;71.22949;95890.77;;;;
2021/09/07 00:41:36;;;;;;;13.7;10.3;;;;;;;10.08;71.22949;95890.77;;;;
2021/09/07 00:42:37;;;;;;;13.7;10.3;;;;;;;10.08;71.22949;95890.77;;;;
2021/09/07 00:43:38;;;;;;;13.7;10.3;;;;;;;10.08;71.22949;95890.77;;;;
2021/09/07 00:44:39;;;;;;;13.7;10.3;;;;;;;10.08;71.22949;95890.77;;;;
2021/09/07 00:45:40;;;;;;;12.5;10.55;;;;;;;9.97;71.52246;95879.24;;;;
2021/09/07 00:46:41;;;;;;;12.5;10.55;;;;;;;9.97;71.52246;95879.24;;;;
2021/09/07 00:47:42;;;;;;;12.5;10.55;;;;;;;9.97;71.52246;95879.24;;;;
2021/09/07 00:48:43;;;;;;;12.5;10.55;;;;;;;9.97;71.52246;95879.24;;;;
2021/09/07 00:49:43;;;;;;;12.5;10.55;;;;;;;9.97;71.52246;95879.24;;;;
2021/09/07 00:50:44;;;;;;;12.5;10.55;;;;;;;9.97;71.52246;95879.24;;;;
2021/09/07 00:51:44;;;;;;;12.5;10.55;;;;;;;9.97;71.52246;95879.24;;;;
2021/09/07 00:52:46;;;;;;;12.5;10.55;;;;;;;9.97;71.52246;95879.24;;;;
2021/09/07 00:53:49;;;;;;;12.5;10.55;;;;;;;9.97;71.52246;95879.24;;;;
2021/09/07 00:54:50;;;;;;;12.5;10.55;;;;;;;9.97;71.52246;95879.24;;;;
2021/09/07 00:55:51;;;;;;;12.9;9.75;;;;;;;9.87;71.78418;95878.05;;;;
2021/09/07 00:56:51;;;;;;;12.9;9.75;;;;;;;9.87;71.78418;95878.05;;;;
2021/09/07 00:57:53;;;;;;;12.9;9.75;;;;;;;9.87;71.78418;95878.05;;;;
2021/09/07 00:58:56;;;;;;;12.9;9.75;;;;;;;9.87;71.78418;95878.05;;;;
2021/09/07 00:59:56;;;;;;;12.9;9.75;;;;;;;9.87;71.78418;95878.05;;;;
2021/09/07 01:00:57;;;;;;;12.9;9.75;;;;;;;9.87;71.78418;95878.05;;;;
2021/09/07 01:01:58;;;;;;;12.9;9.75;;;;;;;9.87;71.78418;95878.05;;;;
2021/09/07 01:02:59;;;;;;;12.9;9.75;;;;;;;9.87;71.78418;95878.05;;;;
2021/09/07 01:03:59;;;;;;;12.9;9.75;;;;;;;9.87;71.78418;95878.05;;;;
2021/09/07 01:05:00;;;;;;;12.9;9.75;;;;;;;9.87;71.78418;95878.05;;;;
2021/09/07 01:06:01;;;;;;;12.9;9.75;;;;;;;9.87;71.78418;95878.05;;;;
2021/09/07 01:07:01;;;;;;;13.35;10.75;;;;;;;9.84;71.92871;95872.56;;;;
2021/09/07 01:08:04;;;;;;;13.35;10.75;;;;;;;9.84;71.92871;95872.56;;;;
2021/09/07 01:09:04;;;;;;;13.35;10.75;;;;;;;9.84;71.92871;95872.56;;;;
2021/09/07 01:10:06;;;;;;;13.35;10.75;;;;;;;9.84;71.92871;95872.56;;;;
2021/09/07 01:11:08;;;;;;;13.35;10.75;;;;;;;9.84;71.92871;95872.56;;;;
2021/09/07 01:12:09;;;;;;;13.35;10.75;;;;;;;9.84;71.92871;95872.56;;;;
2021/09/07 01:13:11;;;;;;;13.35;10.75;;;;;;;9.84;71.92871;95872.56;;;;
2021/09/07 01:14:11;;;;;;;13.35;10.75;;;;;;;9.84;71.92871;95872.56;;;;
2021/09/07 01:15:13;;;;;;;13.35;10.75;;;;;;;9.84;71.92871;95872.56;;;;
2021/09/07 01:16:14;;;;;;;13.35;10.75;;;;;;;9.84;71.92871;95872.56;;;;
2021/09/07 01:17:16;;;;;;;13.35;10.3;;;;;;;9.74;72.13672;95871.8;;;;
2021/09/07 01:18:20;;;;;;;13.35;10.3;;;;;;;9.74;72.13672;95871.8;;;;
2021/09/07 01:19:20;;;;;;;13.35;10.3;;;;;;;9.74;72.13672;95871.8;;;;
2021/09/07 01:20:21;;;;;;;13.35;10.3;;;;;;;9.74;72.13672;95871.8;;;;
2021/09/07 01:21:21;;;;;;;13.35;10.3;;;;;;;9.74;72.13672;95871.8;;;;
2021/09/07 01:22:22;;;;;;;13.35;10.3;;;;;;;9.74;72.13672;95871.8;;;;
2021/09/07 01:23:23;;;;;;;13.35;10.3;;;;;;;9.74;72.13672;95871.8;;;;
2021/09/07 01:24:23;;;;;;;13.35;10.3;;;;;;;9.74;72.13672;95871.8;;;;
2021/09/07 01:25:25;;;;;;;13.35;10.3;;;;;;;9.74;72.13672;95871.8;;;;
2021/09/07 01:26:25;;;;;;;13.35;10.3;;;;;;;9.74;72.13672;95871.8;;;;
2021/09/07 01:27:26;;;;;;;13.35;10.3;;;;;;;9.74;72.13672;95871.8;;;;
2021/09/07 01:28:26;;;;;;;11.75;9.650001;;;;;;;9.64;72.43945;95858.91;;;;
2021/09/07 01:29:27;;;;;;;11.75;9.650001;;;;;;;9.64;72.43945;95858.91;;;;
2021/09/07 01:30:29;;;;;;;11.75;9.650001;;;;;;;9.64;72.43945;95858.91;;;;
2021/09/07 01:31:30;;;;;;;11.75;9.650001;;;;;;;9.64;72.43945;95858.91;;;;
2021/09/07 01:32:30;;;;;;;11.75;9.650001;;;;;;;9.64;72.43945;95858.91;;;;
2021/09/07 01:33:31;;;;;;;11.75;9.650001;;;;;;;9.64;72.43945;95858.91;;;;
2021/09/07 01:34:31;;;;;;;11.75;9.650001;;;;;;;9.64;72.43945;95858.91;;;;
2021/09/07 01:35:32;;;;;;;11.75;9.650001;;;;;;;9.64;72.43945;95858.91;;;;
2021/09/07 01:36:32;;;;;;;11.75;9.650001;;;;;;;9.64;72.43945;95858.91;;;;
2021/09/07 01:37:33;;;;;;;11.75;9.650001;;;;;;;9.64;72.43945;95858.91;;;;
2021/09/07 01:38:37;;;;;;;12.7;9.75;;;;;;;9.54;72.70117;95858.95;;;;
2021/09/07 01:39:38;;;;;;;12.7;9.75;;;;;;;9.54;72.70117;95858.95;;;;
2021/09/07 01:40:38;;;;;;;12.7;9.75;;;;;;;9.54;72.70117;95858.95;;;;
2021/09/07 01:41:38;;;;;;;12.7;9.75;;;;;;;9.54;72.70117;95858.95;;;;
2021/09/07 01:42:41;;;;;;;12.7;9.75;;;;;;;9.54;72.70117;95858.95;;;;
2021/09/07 01:43:42;;;;;;;12.7;9.75;;;;;;;9.54;72.70117;95858.95;;;;
2021/09/07 01:44:47;;;;;;;12.7;9.75;;;;;;;9.54;72.70117;95858.95;;;;
2021/09/07 01:45:48;;;;;;;12.7;9.75;;;;;;;9.54;72.70117;95858.95;;;;
2021/09/07 01:46:51;;;;;;;12.7;9.75;;;;;;;9.54;72.70117;95858.95;;;;
2021/09/07 01:47:53;;;;;;;12.7;9.75;;;;;;;9.54;72.70117;95858.95;;;;
2021/09/07 01:48:53;;;;;;;12.7;9.75;;;;;;;9.54;72.70117;95858.95;;;;
2021/09/07 01:49:54;;;;;;;13.9;10.7;;;;;;;9.53;72.77441;95843.28;;;;
2021/09/07 01:50:56;;;;;;;13.9;10.7;;;;;;;9.53;72.77441;95843.28;;;;
2021/09/07 01:51:57;;;;;;;13.9;10.7;;;;;;;9.53;72.77441;95843.28;;;;
2021/09/07 01:52:57;;;;;;;13.9;10.7;;;;;;;9.53;72.77441;95843.28;;;;
2021/09/07 01:53:58;;;;;;;13.9;10.7;;;;;;;9.53;72.77441;95843.28;;;;
2021/09/07 01:54:59;;;;;;;13.9;10.7;;;;;;;9.53;72.77441;95843.28;;;;
2021/09/07 01:55:59;;;;;;;13.9;10.7;;;;;;;9.53;72.77441;95843.28;;;;
2021/09/07 01:57:00;;;;;;;13.9;10.7;;;;;;;9.53;72.77441;95843.28;;;;
2021/09/07 01:58:01;;;;;;;13.9;10.7;;;;;;;9.53;72.77441;95843.28;;;;
2021/09/07 01:59:02;;;;;;;13.9;10.7;;;;;;;9.53;72.77441;95843.28;;;;
2021/09/07 02:00:03;;;;;;;12.05;10;;;;;;;9.44;73.01563;95838.79;;;;
2021/09/07 02:01:04;;;;;;;12.05;10;;;;;;;9.44;73.01563;95838.79;;;;
2021/09/07 02:02:05;;;;;;;12.05;10;;;;;;;9.44;73.01563;95838.79;;;;
2021/09/07 02:03:05;;;;;;;12.05;10;;;;;;;9.44;73.01563;95838.79;;;;
2021/09/07 02:04:06;;;;;;;12.05;10;;;;;;;9.44;73.01563;95838.79;;;;
2021/09/07 02:05:06;;;;;;;12.05;10;;;;;;;9.44;73.01563;95838.79;;;;
2021/09/07 02:06:08;;;;;;;12.05;10;;;;;;;9.44;73.01563;95838.79;;;;
2021/09/07 02:07:09;;;;;;;12.05;10;;;;;;;9.44;73.01563;95838.79;;;;
2021/09/07 02:08:10;;;;;;;12.05;10;;;;;;;9.44;73.01563;95838.79;;;;
2021/09/07 02:09:10;;;;;;;12.05;10;;;;;;;9.44;73.01563;95838.79;;;;
2021/09/07 02:10:11;;;;;;;12.05;10;;;;;;;9.44;73.01563;95838.79;;;;
2021/09/07 02:11:12;;;;;;;12.05;10;;;;;;;9.44;73.01563;95838.79;;;;
2021/09/07 02:12:13;;;;;;;12.05;10;;;;;;;9.44;73.01563;95838.79;;;;
2021/09/07 02:13:13;;;;;;;12.05;10;;;;;;;9.44;73.01563;95838.79;;;;
2021/09/07 02:14:14;;;;;;;12.05;10;;;;;;;9.44;73.01563;95838.79;;;;
2021/09/07 02:15:14;;;;;;;12.05;10;;;;;;;9.44;73.01563;95838.79;;;;
2021/09/07 02:16:16;;;;;;;12.05;10;;;;;;;9.44;73.01563;95838.79;;;;
2021/09/07 02:17:16;;;;;;;12.05;10;;;;;;;9.44;73.01563;95838.79;;;;
2021/09/07 02:18:17;;;;;;;12.05;10;;;;;;;9.44;73.01563;95838.79;;;;
2021/09/07 02:19:17;;;;;;;12.05;10;;;;;;;9.44;73.01563;95838.79;;;;
2021/09/07 02:20:18;;;;;;;12.05;10;;;;;;;9.44;73.01563;95838.79;;;;
2021/09/07 02:21:18;;;;;;;14.55;10.75;;;;;;;9.38;73.44141;95856.75;;;;
2021/09/07 02:22:18;;;;;;;14.55;10.75;;;;;;;9.38;73.44141;95856.75;;;;
2021/09/07 02:23:19;;;;;;;14.55;10.75;;;;;;;9.38;73.44141;95856.75;;;;
2021/09/07 02:24:20;;;;;;;14.55;10.75;;;;;;;9.38;73.44141;95856.75;;;;
2021/09/07 02:25:20;;;;;;;14.55;10.75;;;;;;;9.38;73.44141;95856.75;;;;
2021/09/07 02:26:21;;;;;;;14.55;10.75;;;;;;;9.38;73.44141;95856.75;;;;
2021/09/07 02:27:22;;;;;;;14.55;10.75;;;;;;;9.38;73.44141;95856.75;;;;
2021/09/07 02:28:22;;;;;;;14.55;10.75;;;;;;;9.38;73.44141;95856.75;;;;
2021/09/07 02:29:23;;;;;;;14.55;10.75;;;;;;;9.38;73.44141;95856.75;;;;
2021/09/07 02:30:23;;;;;;;14.55;10.75;;;;;;;9.38;73.44141;95856.75;;;;
2021/09/07 02:31:24;;;;;;;14.55;10.75;;;;;;;9.38;73.44141;95856.75;;;;
2021/09/07 02:32:24;;;;;;;12.25;9.449999;;;;;;;9.32;73.7207;95845.08;;;;
2021/09/07 02:33:25;;;;;;;12.25;9.449999;;;;;;;9.32;73.7207;95845.08;;;;
2021/09/07 02:34:25;;;;;;;12.25;9.449999;;;;;;;9.32;73.7207;95845.08;;;;
2021/09/07 02:35:27;;;;;;;12.25;9.449999;;;;;;;9.32;73.7207;95845.08;;;;
2021/09/07 02:36:28;;;;;;;12.25;9.449999;;;;;;;9.32;73.7207;95845.08;;;;
2021/09/07 02:37:29;;;;;;;12.25;9.449999;;;;;;;9.32;73.7207;95845.08;;;;
2021/09/07 02:38:29;;;;;;;12.25;9.449999;;;;;;;9.32;73.7207;95845.08;;;;
2021/09/07 02:39:30;;;;;;;12.25;9.449999;;;;;;;9.32;73.7207;95845.08;;;;
2021/09/07 02:40:31;;;;;;;12.25;9.449999;;;;;;;9.32;73.7207;95845.08;;;;
2021/09/07 02:41:31;;;;;;;12.25;9.449999;;;;;;;9.32;73.7207;95845.08;;;;
2021/09/07 02:42:32;;;;;;;12.8;9.75;;;;;;;9.3;73.8457;95857.39;;;;
2021/09/07 02:43:32;;;;;;;12.8;9.75;;;;;;;9.3;73.8457;95857.39;;;;
2021/09/07 02:44:33;;;;;;;12.8;9.75;;;;;;;9.3;73.8457;95857.39;;;;
2021/09/07 02:45:33;;;;;;;12.8;9.75;;;;;;;9.3;73.8457;95857.39;;;;
2021/09/07 02:46:34;;;;;;;12.8;9.75;;;;;;;9.3;73.8457;95857.39;;;;
2021/09/07 02:47:34;;;;;;;12.8;9.75;;;;;;;9.3;73.8457;95857.39;;;;
2021/09/07 02:48:35;;;;;;;12.8;9.75;;;;;;;9.3;73.8457;95857.39;;;;
2021/09/07 02:49:36;;;;;;;12.8;9.75;;;;;;;9.3;73.8457;95857.39;;;;
2021/09/07 02:50:36;;;;;;;12.8;9.75;;;;;;;9.3;73.8457;95857.39;;;;
2021/09/07 02:51:37;;;;;;;12.8;9.75;;;;;;;9.3;73.8457;95857.39;;;;
2021/09/07 02:52:38;;;;;;;12.8;9.75;;;;;;;9.3;73.8457;95857.39;;;;
2021/09/07 02:53:38;;;;;;;12.8;10.1;;;;;;;9.19;73.99805;95853.08;;;;
2021/09/07 02:54:39;;;;;;;12.8;10.1;;;;;;;9.19;73.99805;95853.08;;;;
2021/09/07 02:55:39;;;;;;;12.8;10.1;;;;;;;9.19;73.99805;95853.08;;;;
2021/09/07 02:56:40;;;;;;;12.8;10.1;;;;;;;9.19;73.99805;95853.08;;;;
2021/09/07 02:57:40;;;;;;;12.8;10.1;;;;;;;9.19;73.99805;95853.08;;;;
2021/09/07 02:58:41;;;;;;;12.8;10.1;;;;;;;9.19;73.99805;95853.08;;;;
2021/09/07 02:59:42;;;;;;;12.8;10.1;;;;;;;9.19;73.99805;95853.08;;;;
2021/09/07 03:00:42;;;;;;;12.8;10.1;;;;;;;9.19;73.99805;95853.08;;;;
2021/09/07 03:01:43;;;;;;;12.8;10.1;;;;;;;9.19;73.99805;95853.08;;;;
2021/09/07 03:02:43;;;;;;;12.8;10.1;;;;;;;9.19;73.99805;95853.08;;;;
2021/09/07 03:03:44;;;;;;;12.8;10.1;;;;;;;9.19;73.99805;95853.08;;;;
2021/09/07 03:04:44;;;;;;;13.9;10.35;;;;;;;9.07;74.36133;95840.91;;;;
2021/09/07 03:05:45;;;;;;;13.9;10.35;;;;;;;9.07;74.36133;95840.91;;;;
2021/09/07 03:06:48;;;;;;;13.9;10.35;;;;;;;9.07;74.36133;95840.91;;;;
2021/09/07 03:07:48;;;;;;;13.9;10.35;;;;;;;9.07;74.36133;95840.91;;;;
2021/09/07 03:08:49;;;;;;;13.9;10.35;;;;;;;9.07;74.36133;95840.91;;;;
2021/09/07 03:09:49;;;;;;;13.9;10.35;;;;;;;9.07;74.36133;95840.91;;;;
2021/09/07 03:10:50;;;;;;;13.9;10.35;;;;;;;9.07;74.36133;95840.91;;;;
2021/09/07 03:11:50;;;;;;;13.9;10.35;;;;;;;9.07;74.36133;95840.91;;;;
2021/09/07 03:12:51;;;;;;;13.9;10.35;;;;;;;9.07;74.36133;95840.91;;;;
2021/09/07 03:13:51;;;;;;;13.9;10.35;;;;;;;9.07;74.36133;95840.91;;;;
2021/09/07 03:14:52;;;;;;;12.8;10.25;;;;;;;9.09;74.56738;95841.11;;;;
2021/09/07 03:15:52;;;;;;;12.8;10.25;;;;;;;9.09;74.56738;95841.11;;;;
2021/09/07 03:16:53;;;;;;;12.8;10.25;;;;;;;9.09;74.56738;95841.11;;;;
2021/09/07 03:17:53;;;;;;;12.8;10.25;;;;;;;9.09;74.56738;95841.11;;;;
2021/09/07 03:18:54;;;;;;;12.8;10.25;;;;;;;9.09;74.56738;95841.11;;;;
2021/09/07 03:19:55;;;;;;;12.8;10.25;;;;;;;9.09;74.56738;95841.11;;;;
2021/09/07 03:20:55;;;;;;;12.8;10.25;;;;;;;9.09;74.56738;95841.11;;;;
2021/09/07 03:21:56;;;;;;;12.8;10.25;;;;;;;9.09;74.56738;95841.11;;;;
2021/09/07 03:22:57;;;;;;;12.8;10.25;;;;;;;9.09;74.56738;95841.11;;;;
2021/09/07 03:23:57;;;;;;;12.8;10.25;;;;;;;9.09;74.56738;95841.11;;;;
2021/09/07 03:24:58;;;;;;;12.8;10.25;;;;;;;9.09;74.56738;95841.11;;;;
2021/09/07 03:25:58;;;;;;;12.35;10.3;;;;;;;9.11;74.74121;95841.22;;;;
2021/09/07 03:26:59;;;;;;;12.35;10.3;;;;;;;9.11;74.74121;95841.22;;;;
2021/09/07 03:27:59;;;;;;;12.35;10.3;;;;;;;9.11;74.74121;95841.22;;;;
2021/09/07 03:29:00;;;;;;;12.35;10.3;;;;;;;9.11;74.74121;95841.22;;;;
2021/09/07 03:30:01;;;;;;;12.35;10.3;;;;;;;9.11;74.74121;95841.22;;;;
2021/09/07 03:31:02;;;;;;;12.35;10.3;;;;;;;9.11;74.74121;95841.22;;;;
2021/09/07 03:32:04;;;;;;;12.35;10.3;;;;;;;9.11;74.74121;95841.22;;;;
2021/09/07 03:33:05;;;;;;;12.35;10.3;;;;;;;9.11;74.74121;95841.22;;;;
2021/09/07 03:34:05;;;;;;;12.35;10.3;;;;;;;9.11;74.74121;95841.22;;;;
2021/09/07 03:35:06;;;;;;;12.35;10.3;;;;;;;9.11;74.74121;95841.22;;;;
2021/09/07 03:36:07;;;;;;;13.15;10.4;;;;;;;9.15;74.86523;95837.58;;;;
2021/09/07 03:37:08;;;;;;;13.15;10.4;;;;;;;9.15;74.86523;95837.58;;;;
2021/09/07 03:38:08;;;;;;;13.15;10.4;;;;;;;9.15;74.86523;95837.58;;;;
2021/09/07 03:39:09;;;;;;;13.15;10.4;;;;;;;9.15;74.86523;95837.58;;;;
2021/09/07 03:40:09;;;;;;;13.15;10.4;;;;;;;9.15;74.86523;95837.58;;;;
2021/09/07 03:41:12;;;;;;;13.15;10.4;;;;;;;9.15;74.86523;95837.58;;;;
2021/09/07 03:42:12;;;;;;;13.15;10.4;;;;;;;9.15;74.86523;95837.58;;;;
2021/09/07 03:43:13;;;;;;;13.15;10.4;;;;;;;9.15;74.86523;95837.58;;;;
2021/09/07 03:44:13;;;;;;;13.15;10.4;;;;;;;9.15;74.86523;95837.58;;;;
2021/09/07 03:45:14;;;;;;;13.15;10.4;;;;;;;9.15;74.86523;95837.58;;;;
2021/09/07 03:46:15;;;;;;;13.15;10.4;;;;;;;9.15;74.86523;95837.58;;;;
2021/09/07 03:47:15;;;;;;;13.2;10.3;;;;;;;9.08;75.02246;95840.82;;;;
2021/09/07 03:48:16;;;;;;;13.2;10.3;;;;;;;9.08;75.02246;95840.82;;;;
2021/09/07 03:49:16;;;;;;;13.2;10.3;;;;;;;9.08;75.02246;95840.82;;;;
2021/09/07 03:50:17;;;;;;;13.2;10.3;;;;;;;9.08;75.02246;95840.82;;;;
2021/09/07 03:51:18;;;;;;;13.2;10.3;;;;;;;9.08;75.02246;95840.82;;;;
2021/09/07 03:52:18;;;;;;;13.2;10.3;;;;;;;9.08;75.02246;95840.82;;;;
2021/09/07 03:53:19;;;;;;;13.2;10.3;;;;;;;9.08;75.02246;95840.82;;;;
2021/09/07 03:54:19;;;;;;;13.2;10.3;;;;;;;9.08;75.02246;95840.82;;;;
2021/09/07 03:55:20;;;;;;;13.2;10.3;;;;;;;9.08;75.02246;95840.82;;;;
2021/09/07 03:56:20;;;;;;;13.2;10.3;;;;;;;9.08;75.02246;95840.82;;;;
2021/09/07 03:57:21;;;;;;;12.2;9.599999;;;;;;;8.93;75.30762;95842.93;;;;
2021/09/07 03:58:22;;;;;;;12.2;9.599999;;;;;;;8.93;75.30762;95842.93;;;;
2021/09/07 03:59:22;;;;;;;12.2;9.599999;;;;;;;8.93;75.30762;95842.93;;;;
2021/09/07 04:00:23;;;;;;;12.2;9.599999;;;;;;;8.93;75.30762;95842.93;;;;
2021/09/07 04:01:24;;;;;;;12.2;9.599999;;;;;;;8.93;75.30762;95842.93;;;;
2021/09/07 04:02:24;;;;;;;12.2;9.599999;;;;;;;8.93;75.30762;95842.93;;;;
2021/09/07 04:03:25;;;;;;;12.2;9.599999;;;;;;;8.93;75.30762;95842.93;;;;
2021/09/07 04:04:25;;;;;;;12.2;9.599999;;;;;;;8.93;75.30762;95842.93;;;;
2021/09/07 04:05:26;;;;;;;12.2;9.599999;;;;;;;8.93;75.30762;95842.93;;;;
2021/09/07 04:06:27;;;;;;;12.2;9.599999;;;;;;;8.93;75.30762;95842.93;;;;
2021/09/07 04:07:27;;;;;;;12.2;9.599999;;;;;;;8.93;75.30762;95842.93;;;;
2021/09/07 04:08:28;;;;;;;11.85;9.549999;;;;;;;8.76;75.65039;95838.51;;;;
2021/09/07 04:09:28;;;;;;;11.85;9.549999;;;;;;;8.76;75.65039;95838.51;;;;
2021/09/07 04:10:29;;;;;;;11.85;9.549999;;;;;;;8.76;75.65039;95838.51;;;;
2021/09/07 04:11:29;;;;;;;11.85;9.549999;;;;;;;8.76;75.65039;95838.51;;;;
2021/09/07 04:12:29;;;;;;;11.85;9.549999;;;;;;;8.76;75.65039;95838.51;;;;
2021/09/07 04:13:30;;;;;;;11.85;9.549999;;;;;;;8.76;75.65039;95838.51;;;;
2021/09/07 04:14:31;;;;;;;11.85;9.549999;;;;;;;8.76;75.65039;95838.51;;;;
2021/09/07 04:15:31;;;;;;;11.85;9.549999;;;;;;;8.76;75.65039;95838.51;;;;
2021/09/07 04:16:32;;;;;;;11.85;9.549999;;;;;;;8.76;75.65039;95838.51;;;;
2021/09/07 04:17:33;;;;;;;11.85;9.549999;;;;;;;8.76;75.65039;95838.51;;;;
2021/09/07 04:18:33;;;;;;;11.3;9.799999;;;;;;;8.63;75.9043;95849.34;;;;
2021/09/07 04:19:34;;;;;;;11.3;9.799999;;;;;;;8.63;75.9043;95849.34;;;;
2021/09/07 04:20:34;;;;;;;11.3;9.799999;;;;;;;8.63;75.9043;95849.34;;;;
2021/09/07 04:21:36;;;;;;;11.3;9.799999;;;;;;;8.63;75.9043;95849.34;;;;
2021/09/07 04:22:37;;;;;;;11.3;9.799999;;;;;;;8.63;75.9043;95849.34;;;;
2021/09/07 04:23:37;;;;;;;11.3;9.799999;;;;;;;8.63;75.9043;95849.34;;;;
2021/09/07 04:24:38;;;;;;;11.3;9.799999;;;;;;;8.63;75.9043;95849.34;;;;
2021/09/07 04:25:39;;;;;;;11.3;9.799999;;;;;;;8.63;75.9043;95849.34;;;;
2021/09/07 04:26:39;;;;;;;11.3;9.799999;;;;;;;8.63;75.9043;95849.34;;;;
2021/09/07 04:27:40;;;;;;;11.3;9.799999;;;;;;;8.63;75.9043;95849.34;;;;
2021/09/07 04:28:40;;;;;;;11.3;9.799999;;;;;;;8.63;75.9043;95849.34;;;;
2021/09/07 04:29:41;;;;;;;12.75;9.700001;;;;;;;8.5;76.11719;95849.35;;;;
2021/09/07 04:30:41;;;;;;;12.75;9.700001;;;;;;;8.5;76.11719;95849.35;;;;
2021/09/07 04:31:43;;;;;;;12.75;9.700001;;;;;;;8.5;76.11719;95849.35;;;;
2021/09/07 04:32:43;;;;;;;12.75;9.700001;;;;;;;8.5;76.11719;95849.35;;;;
2021/09/07 04:33:44;;;;;;;12.75;9.700001;;;;;;;8.5;76.11719;95849.35;;;;
2021/09/07 04:34:44;;;;;;;12.75;9.700001;;;;;;;8.5;76.11719;95849.35;;;;
2021/09/07 04:35:45;;;;;;;12.75;9.700001;;;;;;;8.5;76.11719;95849.35;;;;
2021/09/07 04:36:45;;;;;;;12.75;9.700001;;;;;;;8.5;76.11719;95849.35;;;;
2021/09/07 04:37:46;;;;;;;12.75;9.700001;;;;;;;8.5;76.11719;95849.35;;;;
2021/09/07 04:38:47;;;;;;;12.75;9.700001;;;;;;;8.5;76.11719;95849.35;;;;
2021/09/07 04:39:50;;;;;;;12.75;9.700001;;;;;;;8.5;76.11719;95849.35;;;;
2021/09/07 04:40:50;;;;;;;13.25;10.15;;;;;;;8.4;76.32129;95839.54;;;;
2021/09/07 04:41:51;;;;;;;13.25;10.15;;;;;;;8.4;76.32129;95839.54;;;;
2021/09/07 04:42:51;;;;;;;13.25;10.15;;;;;;;8.4;76.32129;95839.54;;;;
2021/09/07 04:43:52;;;;;;;13.25;10.15;;;;;;;8.4;76.32129;95839.54;;;;
2021/09/07 04:44:52;;;;;;;13.25;10.15;;;;;;;8.4;76.32129;95839.54;;;;
2021/09/07 04:45:53;;;;;;;13.25;10.15;;;;;;;8.4;76.32129;95839.54;;;;
2021/09/07 04:46:53;;;;;;;13.25;10.15;;;;;;;8.4;76.32129;95839.54;;;;
2021/09/07 04:47:54;;;;;;;13.25;10.15;;;;;;;8.4;76.32129;95839.54;;;;
2021/09/07 04:48:54;;;;;;;13.25;10.15;;;;;;;8.4;76.32129;95839.54;;;;
2021/09/07 04:49:55;;;;;;;13.25;10.15;;;;;;;8.4;76.32129;95839.54;;;;
2021/09/07 04:50:55;;;;;;;13.25;10.15;;;;;;;8.4;76.32129;95839.54;;;;
2021/09/07 04:51:56;;;;;;;13.25;10.15;;;;;;;8.4;76.32129;95839.54;;;;
2021/09/07 04:52:57;;;;;;;13.25;10.15;;;;;;;8.4;76.32129;95839.54;;;;
2021/09/07 04:54:00;;;;;;;13.25;10.15;;;;;;;8.4;76.32129;95839.54;;;;
2021/09/07 04:55:01;;;;;;;13.25;10.15;;;;;;;8.4;76.32129;95839.54;;;;
2021/09/07 04:56:02;;;;;;;13.25;10.15;;;;;;;8.4;76.32129;95839.54;;;;
2021/09/07 04:57:02;;;;;;;13.25;10.15;;;;;;;8.4;76.32129;95839.54;;;;
2021/09/07 04:58:03;;;;;;;13.25;10.15;;;;;;;8.4;76.32129;95839.54;;;;
2021/09/07 04:59:04;;;;;;;13.25;10.15;;;;;;;8.4;76.32129;95839.54;;;;
2021/09/07 05:00:04;;;;;;;13.25;10.15;;;;;;;8.4;76.32129;95839.54;;;;
2021/09/07 05:01:06;;;;;;;13.25;10.15;;;;;;;8.4;76.32129;95839.54;;;;
2021/09/07 05:02:07;;;;;;;14.95;10.9;;;;;;;8.48;76.53809;95853.27;;;;
2021/09/07 05:03:07;;;;;;;14.95;10.9;;;;;;;8.48;76.53809;95853.27;;;;
2021/09/07 05:04:08;;;;;;;14.95;10.9;;;;;;;8.48;76.53809;95853.27;;;;
2021/09/07 05:05:08;;;;;;;14.95;10.9;;;;;;;8.48;76.53809;95853.27;;;;
2021/09/07 05:06:10;;;;;;;14.95;10.9;;;;;;;8.48;76.53809;95853.27;;;;
2021/09/07 05:07:10;;;;;;;14.95;10.9;;;;;;;8.48;76.53809;95853.27;;;;
2021/09/07 05:08:11;;;;;;;14.95;10.9;;;;;;;8.48;76.53809;95853.27;;;;
2021/09/07 05:09:12;;;;;;;14.95;10.9;;;;;;;8.48;76.53809;95853.27;;;;
2021/09/07 05:10:12;;;;;;;14.95;10.9;;;;;;;8.48;76.53809;95853.27;;;;
2021/09/07 05:11:13;;;;;;;14.95;10.9;;;;;;;8.48;76.53809;95853.27;;;;
2021/09/07 05:12:13;;;;;;;13.5;11.1;;;;;;;8.66;76.54883;95851.18;;;;
2021/09/07 05:13:14;;;;;;;13.5;11.1;;;;;;;8.66;76.54883;95851.18;;;;
2021/09/07 05:14:14;;;;;;;13.5;11.1;;;;;;;8.66;76.54883;95851.18;;;;
2021/09/07 05:15:15;;;;;;;13.5;11.1;;;;;;;8.66;76.54883;95851.18;;;;
2021/09/07 05:16:15;;;;;;;13.5;11.1;;;;;;;8.66;76.54883;95851.18;;;;
2021/09/07 05:17:16;;;;;;;13.5;11.1;;;;;;;8.66;76.54883;95851.18;;;;
2021/09/07 05:18:16;;;;;;;13.5;11.1;;;;;;;8.66;76.54883;95851.18;;;;
2021/09/07 05:19:17;;;;;;;13.5;11.1;;;;;;;8.66;76.54883;95851.18;;;;
2021/09/07 05:20:17;;;;;;;13.5;11.1;;;;;;;8.66;76.54883;95851.18;;;;
2021/09/07 05:21:18;;;;;;;13.5;11.1;;;;;;;8.66;76.54883;95851.18;;;;
2021/09/07 05:22:18;;;;;;;13.5;11.1;;;;;;;8.66;76.54883;95851.18;;;;
2021/09/07 05:23:19;;;;;;;12.6;10.5;;;;;;;8.88;76.60938;95869.16;;;;
2021/09/07 05:24:19;;;;;;;12.6;10.5;;;;;;;8.88;76.60938;95869.16;;;;
2021/09/07 05:25:20;;;;;;;12.6;10.5;;;;;;;8.88;76.60938;95869.16;;;;
2021/09/07 05:26:20;;;;;;;12.6;10.5;;;;;;;8.88;76.60938;95869.16;;;;
2021/09/07 05:27:21;;;;;;;12.6;10.5;;;;;;;8.88;76.60938;95869.16;;;;
2021/09/07 05:28:21;;;;;;;12.6;10.5;;;;;;;8.88;76.60938;95869.16;;;;
2021/09/07 05:29:22;;;;;;;12.6;10.5;;;;;;;8.88;76.60938;95869.16;;;;
2021/09/07 05:30:22;;;;;;;12.6;10.5;;;;;;;8.88;76.60938;95869.16;;;;
2021/09/07 05:31:24;;;;;;;12.6;10.5;;;;;;;8.88;76.60938;95869.16;;;;
2021/09/07 05:32:24;;;;;;;12.6;10.5;;;;;;;8.88;76.60938;95869.16;;;;
2021/09/07 05:33:25;;;;;;;13.75;11.7;;;;;;;9.08;76.77051;95862.37;;;;
2021/09/07 05:34:29;;;;;;;13.75;11.7;;;;;;;9.08;76.77051;95862.37;;;;
2021/09/07 05:35:30;;;;;;;13.75;11.7;;;;;;;9.08;76.77051;95862.37;;;;
2021/09/07 05:36:31;;;;;;;13.75;11.7;;;;;;;9.08;76.77051;95862.37;;;;
2021/09/07 05:37:37;;;;;;;13.75;11.7;;;;;;;9.08;76.77051;95862.37;;;;
2021/09/07 05:38:38;;;;;;;13.75;11.7;;;;;;;9.08;76.77051;95862.37;;;;
2021/09/07 05:39:38;;;;;;;13.75;11.7;;;;;;;9.08;76.77051;95862.37;;;;
2021/09/07 05:40:39;;;;;;;13.75;11.7;;;;;;;9.08;76.77051;95862.37;;;;
2021/09/07 05:41:39;;;;;;;13.75;11.7;;;;;;;9.08;76.77051;95862.37;;;;